Meteorología y climatología de Navarra
Datos de la estación - Meteo Navarra

Estación de Tudela (Montes del Cierzo) GN

Altitud 314 m.


Datos desde el 30/06/2020 hasta el 01/07/2020 en horario solar
Los datos son PROVISIONALES

Anterior Página 1 de 1 Siguiente Descargar: Formato para Excel 2000 o superior   Formato csv   Formato para OpenOffice Calc
Fecha Temperatura Humedad relativa Radiación global Insolación Precipitación Vel. viento 10 m Vel. viento 10 m Dir. viento 10 m
ºC % W/m² s l/m² m/s km/h º
30/06/2020 0:00 17.3 73 0.0 0 0.0 3.4 12.2 310
30/06/2020 0:10 17.1 73 0.0 0 0.0 3.2 11.3 309
30/06/2020 0:20 17.0 73 0.0 0 0.0 3.1 11.1 307
30/06/2020 0:30 16.9 74 0.0 0 0.0 2.9 10.3 310
30/06/2020 0:40 16.8 74 0.0 0 0.0 3.0 10.8 311
30/06/2020 0:50 16.7 75 0.0 0 0.0 3.2 11.7 311
30/06/2020 1:00 16.6 75 0.0 0 0.0 3.0 10.8 314
30/06/2020 1:10 16.5 75 0.0 0 0.0 2.8 10.2 311
30/06/2020 1:20 16.4 76 0.0 0 0.0 3.1 11.0 308
30/06/2020 1:30 16.2 76 0.0 0 0.0 3.0 10.7 309
30/06/2020 1:40 16.3 76 0.0 0 0.0 2.8 10.0 318
30/06/2020 1:50 16.3 77 0.0 0 0.0 2.4 8.5 315
30/06/2020 2:00 16.0 78 0.0 0 0.0 2.5 9.0 309
30/06/2020 2:10 16.0 79 0.0 0 0.0 2.6 9.4 313
30/06/2020 2:20 15.8 79 0.0 0 0.0 2.2 7.7 315
30/06/2020 2:30 15.7 79 0.0 0 0.0 1.9 6.9 318
30/06/2020 2:40 15.5 80 0.0 0 0.0 1.7 6.1 313
30/06/2020 2:50 15.5 80 0.0 0 0.0 1.8 6.6 322
30/06/2020 3:00 15.3 81 0.0 0 0.0 1.9 6.8 322
30/06/2020 3:10 15.1 82 0.0 0 0.0 1.9 6.8 311
30/06/2020 3:20 15.0 82 0.0 0 0.0 2.2 7.9 293
30/06/2020 3:30 15.0 82 0.0 0 0.0 2.5 9.1 292
30/06/2020 3:40 15.2 82 0.0 0 0.0 3.0 10.7 293
30/06/2020 3:50 15.3 81 0.0 0 0.0 3.2 11.4 295
30/06/2020 4:00 15.4 80 0.0 0 0.0 3.4 12.1 292
30/06/2020 4:10 15.5 80 0.0 0 0.0 3.4 12.1 289
30/06/2020 4:20 15.6 80 0.0 0 0.0 3.3 11.9 294
30/06/2020 4:30 15.6 80 0.0 0 0.0 3.5 12.5 298
30/06/2020 4:40 15.8 79 0.0 0 0.0 3.2 11.5 300
30/06/2020 4:50 15.6 79 0.0 0 0.0 3.2 11.6 293
30/06/2020 5:00 15.7 80 19.1 0 0.0 2.8 10.2 280
30/06/2020 5:10 15.6 80 35.7 2 0.0 2.7 9.7 277
30/06/2020 5:20 15.7 81 51.3 98 0.0 2.7 9.7 284
30/06/2020 5:30 15.8 81 82.6 578 0.0 2.5 8.9 292
30/06/2020 5:40 16.3 79 108.6 600 0.0 2.6 9.2 310
30/06/2020 5:50 16.8 77 135.9 600 0.0 2.9 10.6 308
30/06/2020 6:00 17.3 75 164.7 600 0.0 3.4 12.3 305
30/06/2020 6:10 17.6 73 194.5 600 0.0 3.5 12.4 311
30/06/2020 6:20 18.2 72 224.1 600 0.0 2.8 10.2 316
30/06/2020 6:30 18.6 69 255.4 600 0.0 2.9 10.5 327
30/06/2020 6:40 18.8 67 288.2 600 0.0 2.8 9.9 324
30/06/2020 6:50 18.8 67 319.4 600 0.0 2.2 7.8 316
30/06/2020 7:00 19.5 65 352.1 600 0.0 2.0 7.1 326
30/06/2020 7:10 19.9 62 386.5 600 0.0 2.5 9.0 318
30/06/2020 7:20 20.0 62 419.6 600 0.0 2.4 8.8 316
30/06/2020 7:30 20.3 60 449.1 600 0.0 2.2 8.0 327
30/06/2020 7:40 20.9 59 481.6 600 0.0 2.1 7.4 314
30/06/2020 7:50 21.5 56 511.8 600 0.0 2.4 8.6 320
30/06/2020 8:00 22.1 55 543.0 600 0.0 2.0 7.1 315
30/06/2020 8:10 22.2 55 571.4 600 0.0 1.8 6.6 339
30/06/2020 8:20 22.4 54 600.2 600 0.0 2.6 9.2 355
30/06/2020 8:30 22.6 53 629.7 600 0.0 2.3 8.2 351
30/06/2020 8:40 22.8 52 657.5 600 0.0 1.9 7.0 335
30/06/2020 8:50 22.9 52 683.3 600 0.0 1.2 4.5 5
30/06/2020 9:00 23.6 49 708.1 600 0.0 1.3 4.8 346
30/06/2020 9:10 23.8 47 732.0 600 0.0 2.0 7.2 3
30/06/2020 9:20 23.7 47 762.3 600 0.0 1.6 5.9 44
30/06/2020 9:30 23.8 47 782.3 600 0.0 1.5 5.5 71
30/06/2020 9:40 24.5 45 804.0 600 0.0 1.6 5.7 41
30/06/2020 9:50 24.5 43 824.0 600 0.0 1.0 3.7 57
30/06/2020 10:00 25.2 41 842.0 600 0.0 0.8 3.0 64
30/06/2020 10:10 25.5 40 859.0 600 0.0 1.7 5.9 91
30/06/2020 10:20 25.4 39 875.0 600 0.0 1.1 4.0 121
30/06/2020 10:30 26.1 39 887.0 600 0.0 1.4 5.0 84
30/06/2020 10:40 26.4 37 907.0 600 0.0 1.8 6.4 59
30/06/2020 10:50 26.5 37 922.0 600 0.0 2.3 8.4 104
30/06/2020 11:00 26.7 33 935.0 600 0.0 1.5 5.3 86
30/06/2020 11:10 27.2 29 946.0 600 0.0 2.2 8.1 40
30/06/2020 11:20 27.7 29 949.0 600 0.0 1.0 3.6 70
30/06/2020 11:30 28.2 28 959.0 600 0.0 1.9 6.7 159
30/06/2020 11:40 28.5 24 962.0 600 0.0 1.1 3.8 141
30/06/2020 11:50 28.8 28 963.0 600 0.0 2.1 7.5 113
30/06/2020 12:00 29.1 29 965.0 600 0.0 2.3 8.1 108
30/06/2020 12:10 29.4 29 965.0 600 0.0 2.7 9.5 139
30/06/2020 12:20 30.0 29 966.0 600 0.0 2.7 9.7 128
30/06/2020 12:30 30.0 29 965.0 600 0.0 2.6 9.2 139
30/06/2020 12:40 29.9 30 963.0 600 0.0 3.2 11.6 133
30/06/2020 12:50 30.1 30 958.0 600 0.0 3.5 12.5 147
30/06/2020 13:00 30.4 30 952.0 600 0.0 3.5 12.4 142
30/06/2020 13:10 30.3 31 945.0 600 0.0 3.3 11.8 162
30/06/2020 13:20 30.8 31 942.0 600 0.0 4.3 15.3 138
30/06/2020 13:30 30.7 31 771.0 600 0.0 3.9 14.2 154
30/06/2020 13:40 30.8 31 879.0 600 0.0 4.2 14.9 145
30/06/2020 13:50 31.4 31 899.0 600 0.0 3.8 13.8 140
30/06/2020 14:00 30.7 32 337.3 70 0.0 4.1 14.9 144
30/06/2020 14:10 29.7 34 225.5 0 0.0 3.7 13.4 176
30/06/2020 14:20 29.6 33 201.8 0 0.0 3.2 11.5 159
30/06/2020 14:30 29.7 33 175.0 0 0.0 2.9 10.4 166
30/06/2020 14:40 29.5 34 160.7 0 0.0 3.0 10.8 180
30/06/2020 14:50 29.4 34 160.1 0 0.0 2.5 9.1 190
30/06/2020 15:00 29.7 34 176.4 0 0.0 2.3 8.3 203
30/06/2020 15:10 29.6 34 126.3 0 0.0 3.4 12.2 203
30/06/2020 15:20 29.2 35 76.7 0 0.0 2.8 10.1 203
30/06/2020 15:30 29.2 35 69.7 0 0.0 2.1 7.6 224
30/06/2020 15:40 29.2 35 120.4 0 0.0 2.0 7.0 230
30/06/2020 15:50 29.6 35 215.4 20 0.0 1.5 5.3 229
30/06/2020 16:00 30.7 32 479.0 558 0.0 1.3 4.5 259
30/06/2020 16:10 31.1 31 230.9 14 0.0 1.0 3.6 239
30/06/2020 16:20 30.8 32 147.9 0 0.0 0.9 3.2 213
30/06/2020 16:30 30.2 34 137.0 0 0.0 1.2 4.2 227
30/06/2020 16:40 30.1 34 122.0 0 0.0 1.8 6.3 238
30/06/2020 16:50 30.1 33 107.7 0 0.0 1.9 7.0 260
30/06/2020 17:00 29.9 33 106.2 0 0.0 3.1 11.2 285
30/06/2020 17:10 29.6 33 102.8 0 0.0 2.8 10.0 298
30/06/2020 17:20 29.3 33 95.6 0 0.0 2.5 8.9 281
30/06/2020 17:30 29.3 34 82.3 0 0.0 2.5 8.9 287
30/06/2020 17:40 29.2 34 67.3 0 0.0 1.7 6.0 315
30/06/2020 17:50 29.0 35 43.9 0 0.0 1.5 5.5 310
30/06/2020 18:00 28.7 36 32.1 0 0.0 2.4 8.7 303
30/06/2020 18:10 28.4 37 29.9 0 0.0 2.1 7.5 307
30/06/2020 18:20 28.3 38 28.5 0 0.0 1.5 5.3 304
30/06/2020 18:30 28.0 41 24.4 0 0.0 1.4 5.0 240
30/06/2020 18:40 27.6 44 18.8 0 0.0 1.1 3.8 224
30/06/2020 18:50 27.3 45 15.9 0 0.0 0.7 2.4 263
30/06/2020 19:00 26.9 46 17.2 0 0.0 1.8 6.4 301
30/06/2020 19:10 27.0 47 10.4 0 0.0 0.7 2.7 280
30/06/2020 19:20 26.6 49 0.0 0 0.0 1.9 6.7 320
30/06/2020 19:30 26.2 52 0.0 0 0.0 1.8 6.3 339
30/06/2020 19:40 25.7 55 0.0 0 0.0 1.5 5.4 29
30/06/2020 19:50 24.9 57 0.0 0 0.0 1.0 3.7 60
30/06/2020 20:00 24.5 59 0.0 0 0.0 1.5 5.5 260
30/06/2020 20:10 24.2 62 0.0 0 0.0 0.5 1.6 177
30/06/2020 20:20 23.5 66 0.0 0 0.0 0.8 3.0 178
30/06/2020 20:30 23.6 64 0.0 0 0.0 0.5 1.6 172
30/06/2020 20:40 23.9 61 0.0 0 0.0 1.4 5.0 151
30/06/2020 20:50 23.9 61 0.0 0 0.0 2.6 9.4 232
30/06/2020 21:00 24.3 60 0.0 0 0.0 2.7 9.8 248
30/06/2020 21:10 24.6 59 0.0 0 0.0 3.6 13.1 255
30/06/2020 21:20 24.9 56 0.0 0 0.0 3.3 12.0 278
30/06/2020 21:30 24.9 55 0.0 0 0.0 2.1 7.6 282
30/06/2020 21:40 24.8 56 0.0 0 0.0 2.2 7.8 307
30/06/2020 21:50 24.7 57 0.0 0 0.0 0.6 2.3 323
30/06/2020 22:00 24.3 59 0.0 0 0.0 0.2 0.7 330
30/06/2020 22:10 23.6 63 0.0 0 0.0 1.8 6.4 95
30/06/2020 22:20 23.6 62 0.0 0 0.0 4.6 16.4 116
30/06/2020 22:30 24.2 59 0.0 0 0.0 3.7 13.5 139
30/06/2020 22:40 24.8 56 0.0 0 0.0 2.1 7.6 164
30/06/2020 22:50 24.7 57 0.0 0 0.0 0.9 3.2 24
30/06/2020 23:00 23.8 63 0.0 0 0.0 1.7 6.0 60
30/06/2020 23:10 23.5 64 0.0 0 0.0 1.3 4.6 67
30/06/2020 23:20 22.9 66 0.0 0 0.0 2.7 9.7 136
30/06/2020 23:30 23.1 64 0.0 0 0.0 2.4 8.7 163
30/06/2020 23:40 22.6 67 0.0 0 0.0 3.1 11.3 174
30/06/2020 23:50 22.7 67 0.0 0 0.0 2.6 9.4 184
Anterior Página 1 de 1 Siguiente

NOTA: Tipo de datos según el color:
   - Valores diarios o 10 minutos correctos
   - Valores diarios calculados a partir de un número de datos 10 minutos menor que 144 y mayor que 120, o de un número de datos semihorarios menor que 48 y mayor que 40 (caso de las estaciones de INTIA y del Ministerio)
   - Valores diez minutos estimados


Contacto        Enlaces        Aviso legal